Time;durP1;ratioP1;P1;durP2;ratioP2;P2;SDS_P1;SDS_P2;PMS_P1;PMS_P2;Temp;Humidity;BMP_temperature;BMP_pressure;BME280_temperature;BME280_humidity;BME280_pressure;Samples;Min_cycle;Max_cycle;Signal;HPM_P1;HPM_P2
2022/11/14 00:02:26;;;;;;;5.90;3.15;;;;;;;7.49;84.33;100908.64;1701561;82;21062;-75
2022/11/14 00:05:12;;;;;;;6.08;3.47;;;;;;;7.42;84.42;100907.45;1716276;82;21132;-78
2022/11/14 00:07:57;;;;;;;5.03;2.90;;;;;;;7.34;84.48;100908.52;1716756;82;21070;-76
2022/11/14 00:10:45;;;;;;;5.37;3.00;;;;;;;7.26;84.58;100920.54;1707054;82;21040;-76
2022/11/14 00:13:31;;;;;;;4.92;3.62;;;;;;;7.27;84.58;100915.59;1711850;83;21078;-73
2022/11/14 00:16:17;;;;;;;7.20;3.83;;;;;;;7.36;84.29;100913.20;1715267;82;21091;-74
2022/11/14 00:19:03;;;;;;;9.28;3.83;;;;;;;7.31;84.44;100912.24;1716009;83;21056;-74
2022/11/14 00:21:51;;;;;;;5.92;3.95;;;;;;;7.24;84.48;100921.59;1722926;82;21033;-75
2022/11/14 00:24:37;;;;;;;7.58;4.30;;;;;;;7.18;84.53;100915.46;1717764;82;21199;-74
2022/11/14 00:27:22;;;;;;;5.45;3.30;;;;;;;7.10;84.54;100914.73;1717540;82;21025;-75
2022/11/14 00:30:09;;;;;;;6.78;3.27;;;;;;;7.11;84.51;100915.10;1698233;82;21086;-74
2022/11/14 00:32:55;;;;;;;7.17;3.10;;;;;;;7.17;84.34;100907.19;1709149;82;21305;-73
2022/11/14 00:35:43;;;;;;;4.95;2.90;;;;;;;7.10;84.49;100910.77;1689222;83;21049;-76
2022/11/14 00:38:28;;;;;;;4.92;3.20;;;;;;;7.02;84.70;100910.02;1658335;83;21097;-74
2022/11/14 00:41:13;;;;;;;5.20;2.83;;;;;;;6.97;84.69;100913.97;1707921;83;21080;-75
2022/11/14 00:43:58;;;;;;;4.42;2.58;;;;;;;6.95;84.73;100914.08;1690115;83;21064;-73
2022/11/14 00:46:43;;;;;;;4.83;2.77;;;;;;;7.01;84.57;100914.09;1682862;83;22055;-72
2022/11/14 00:49:29;;;;;;;6.50;3.20;;;;;;;6.97;84.63;100920.58;1667965;83;21080;-73
2022/11/14 00:52:14;;;;;;;4.92;2.95;;;;;;;6.89;84.72;100917.19;1682122;83;22379;-73
2022/11/14 00:54:59;;;;;;;3.77;2.77;;;;;;;6.82;84.89;100915.98;1703725;83;21061;-75
2022/11/14 00:57:44;;;;;;;4.70;2.47;;;;;;;6.76;84.98;100916.42;1689772;83;21476;-74
2022/11/14 01:00:30;;;;;;;4.80;2.25;;;;;;;6.78;84.85;100917.15;1675631;83;21820;-76
2022/11/14 01:03:14;;;;;;;5.60;2.98;;;;;;;6.83;84.65;100916.34;1682199;83;21069;-75
2022/11/14 01:06:06;;;;;;;5.42;3.10;;;;;;;6.78;84.93;100916.70;1685119;83;21960;-76
2022/11/14 01:08:51;;;;;;;6.50;3.98;;;;;;;6.73;85.05;100919.31;1682998;83;21057;-75
2022/11/14 01:11:37;;;;;;;9.03;5.60;;;;;;;6.69;85.08;100927.94;1691994;83;21509;-77
2022/11/14 01:14:22;;;;;;;7.37;4.53;;;;;;;6.68;84.92;100926.23;1692986;83;21190;-77
2022/11/14 01:17:07;;;;;;;5.35;4.28;;;;;;;6.74;84.68;100924.48;1673663;83;21033;-77
2022/11/14 01:19:54;;;;;;;6.85;3.92;;;;;;;6.66;84.82;100925.52;1706127;83;21009;-75
2022/11/14 01:22:40;;;;;;;7.40;4.53;;;;;;;6.61;85.01;100921.07;1674355;83;21613;-74
2022/11/14 01:25:26;;;;;;;6.40;4.40;;;;;;;6.55;85.03;100921.04;1684551;83;21596;-74
2022/11/14 01:28:13;;;;;;;8.13;4.33;;;;;;;6.49;85.01;100927.61;1696805;83;21286;-74
2022/11/14 01:31:21;;;;;;;7.67;5.03;;;;;;;6.52;84.92;100923.89;1680315;83;21614;-75
2022/11/14 01:34:06;;;;;;;7.05;4.50;;;;;;;6.60;84.67;100925.97;1667795;83;21053;-73
2022/11/14 01:36:51;;;;;;;8.10;5.33;;;;;;;6.54;84.76;100929.91;1707450;83;21024;-74
2022/11/14 01:39:36;;;;;;;9.03;5.92;;;;;;;6.50;85.03;100929.77;1683012;83;21059;-73
2022/11/14 01:42:21;;;;;;;11.78;6.67;;;;;;;6.43;85.05;100933.34;1685293;83;21097;-74
2022/11/14 01:45:57;;;;;;;7.50;5.78;;;;;;;6.44;84.95;100929.73;1683870;83;21053;-73
2022/11/14 01:48:59;;;;;;;10.72;5.97;;;;;;;6.54;84.62;100926.43;1699999;83;21069;-73
2022/11/14 01:51:54;;;;;;;8.38;5.97;;;;;;;6.43;84.52;100929.39;1697738;83;21032;-74
2022/11/14 01:54:44;;;;;;;7.37;5.35;;;;;;;6.31;84.74;100931.58;1681262;83;21131;-75
2022/11/14 01:57:33;;;;;;;8.43;4.95;;;;;;;6.23;84.90;100932.63;1695303;83;21237;-74
2022/11/14 02:00:19;;;;;;;7.53;5.47;;;;;;;6.25;84.79;100932.03;1680314;83;21100;-73
2022/11/14 02:04:29;;;;;;;7.00;5.40;;;;;;;6.31;84.55;100930.27;1854330;75;27514;-75
2022/11/14 02:07:14;;;;;;;8.35;6.22;;;;;;;6.18;84.76;100930.78;1823603;77;21089;-73
2022/11/14 02:10:00;;;;;;;5.97;5.25;;;;;;;6.09;85.03;100929.18;1819854;77;21145;-74
2022/11/14 02:12:45;;;;;;;6.97;4.30;;;;;;;6.02;85.03;100927.92;1831806;77;20984;-73
2022/11/14 02:15:30;;;;;;;6.28;3.80;;;;;;;6.01;85.15;100935.48;1838642;77;20968;-74
2022/11/14 02:18:16;;;;;;;6.20;4.08;;;;;;;6.08;84.90;100935.88;1853482;77;22293;-74
2022/11/14 02:21:01;;;;;;;13.08;4.03;;;;;;;5.99;85.12;100933.89;1828085;77;21072;-73
2022/11/14 02:23:46;;;;;;;7.80;4.05;;;;;;;5.85;85.36;100933.07;1834502;77;21140;-72
2022/11/14 02:26:31;;;;;;;6.55;3.92;;;;;;;5.71;85.58;100930.55;1834089;77;21328;-73
2022/11/14 02:29:16;;;;;;;7.60;3.83;;;;;;;5.60;85.87;100926.49;1848175;77;21051;-74
2022/11/14 02:32:01;;;;;;;6.05;3.70;;;;;;;5.59;86.05;100926.98;1822938;78;21065;-72
2022/11/14 02:34:46;;;;;;;8.40;3.92;;;;;;;5.66;85.87;100933.97;1840174;77;21049;-76
2022/11/14 02:37:32;;;;;;;6.85;4.80;;;;;;;5.60;86.34;100933.95;1858089;77;21128;-74
2022/11/14 02:40:17;;;;;;;6.22;3.95;;;;;;;5.55;86.44;100931.27;1849694;77;21053;-74
2022/11/14 02:43:02;;;;;;;7.85;4.40;;;;;;;5.51;86.38;100934.58;1827810;77;21030;-74
2022/11/14 02:45:47;;;;;;;11.10;5.28;;;;;;;5.44;86.29;100934.14;1831641;77;21100;-76
2022/11/14 02:48:33;;;;;;;6.40;4.17;;;;;;;5.46;86.16;100934.88;1823634;77;20982;-74
2022/11/14 02:51:18;;;;;;;7.67;4.53;;;;;;;5.54;86.01;100938.30;1839320;77;21267;-73
2022/11/14 02:54:03;;;;;;;9.08;4.72;;;;;;;5.47;86.18;100936.58;1848452;77;21012;-74
2022/11/14 02:56:48;;;;;;;8.85;4.62;;;;;;;5.41;86.38;100935.69;1838165;77;21091;-72
2022/11/14 02:59:34;;;;;;;9.78;5.45;;;;;;;5.35;86.59;100932.62;1837843;77;21017;-72
2022/11/14 03:02:19;;;;;;;8.73;6.30;;;;;;;5.24;86.73;100930.25;1829236;77;21081;-72
2022/11/14 03:05:05;;;;;;;8.23;4.50;;;;;;;5.27;86.75;100935.78;1817560;77;21194;-72
2022/11/14 03:07:53;;;;;;;6.58;4.55;;;;;;;5.36;86.65;100938.27;1817946;77;21049;-74
2022/11/14 03:10:38;;;;;;;8.43;4.67;;;;;;;5.29;86.63;100932.11;1813704;77;20968;-74
2022/11/14 03:13:23;;;;;;;8.40;4.33;;;;;;;5.20;86.86;100927.94;1819320;77;21731;-74
2022/11/14 03:16:11;;;;;;;6.70;5.10;;;;;;;5.15;87.06;100928.72;1781594;77;20987;-73
2022/11/14 03:18:57;;;;;;;7.45;4.60;;;;;;;5.17;86.94;100932.09;1828690;77;21839;-74
2022/11/14 03:21:42;;;;;;;8.85;5.12;;;;;;;5.25;86.74;100935.04;1833712;77;21037;-74
2022/11/14 03:24:28;;;;;;;8.35;4.53;;;;;;;5.17;86.83;100941.31;1819291;77;21090;-73
2022/11/14 03:27:13;;;;;;;10.15;5.25;;;;;;;5.11;87.10;100950.47;1811249;77;21945;-73
2022/11/14 03:29:58;;;;;;;7.28;5.17;;;;;;;5.04;87.30;100941.28;1815574;77;21573;-73
2022/11/14 03:32:44;;;;;;;7.50;4.83;;;;;;;5.07;87.31;100948.52;1827951;77;21132;-75
2022/11/14 03:35:29;;;;;;;7.45;5.03;;;;;;;5.17;86.91;100950.05;1824955;77;21038;-75
2022/11/14 03:38:14;;;;;;;9.58;5.80;;;;;;;5.13;86.89;100952.52;1839195;77;21529;-72
2022/11/14 03:40:58;;;;;;;9.85;5.72;;;;;;;5.06;86.97;100948.16;1847704;77;21030;-75
2022/11/14 03:43:44;;;;;;;7.10;5.40;;;;;;;4.99;87.05;100944.72;1815881;77;21033;-75
2022/11/14 03:46:29;;;;;;;7.42;5.08;;;;;;;4.98;86.98;100942.53;1827086;77;21136;-73
2022/11/14 03:49:14;;;;;;;6.97;5.47;;;;;;;5.06;86.67;100945.97;1834524;77;20966;-73
2022/11/14 03:52:00;;;;;;;8.05;5.42;;;;;;;5.01;86.96;100948.09;1825403;77;21122;-75
2022/11/14 03:54:46;;;;;;;8.98;6.53;;;;;;;4.93;87.15;100952.07;1814312;79;21009;-75
2022/11/14 03:57:31;;;;;;;8.73;6.35;;;;;;;4.87;87.40;100949.02;1843883;77;21085;-74
2022/11/14 04:00:17;;;;;;;11.60;5.85;;;;;;;4.89;87.27;100951.07;1823028;77;22023;-74
2022/11/14 04:03:02;;;;;;;8.48;5.85;;;;;;;4.97;87.08;100945.30;1818654;77;21131;-75
2022/11/14 04:05:48;;;;;;;9.68;6.65;;;;;;;4.91;87.11;100950.02;1832534;78;21002;-75
2022/11/14 04:08:32;;;;;;;8.40;5.25;;;;;;;4.84;87.32;100944.77;1816451;78;21033;-73
2022/11/14 04:11:18;;;;;;;10.32;5.95;;;;;;;4.77;87.57;100954.50;1805612;78;21133;-73
2022/11/14 04:14:05;;;;;;;7.70;4.90;;;;;;;4.78;87.53;100951.77;1762888;80;20995;-74
2022/11/14 04:16:51;;;;;;;7.75;5.28;;;;;;;4.86;87.13;100948.63;1821615;78;20998;-72
2022/11/14 04:19:36;;;;;;;7.90;5.08;;;;;;;4.80;87.31;100951.19;1806949;78;21073;-73
2022/11/14 04:22:22;;;;;;;7.37;4.85;;;;;;;4.70;87.66;100952.27;1815798;77;21053;-74
2022/11/14 04:25:08;;;;;;;6.80;4.22;;;;;;;4.63;87.84;100948.34;1805156;78;21537;-74
2022/11/14 04:27:53;;;;;;;7.95;4.20;;;;;;;4.62;87.96;100952.42;1810631;78;21139;-75
2022/11/14 04:30:40;;;;;;;7.87;4.90;;;;;;;4.70;87.71;100957.54;1818982;78;21549;-73
2022/11/14 04:33:25;;;;;;;8.20;4.97;;;;;;;4.65;87.93;100955.67;1807352;78;21062;-75
2022/11/14 04:36:10;;;;;;;9.85;5.58;;;;;;;4.59;88.06;100957.39;1819358;78;21111;-75
2022/11/14 04:38:56;;;;;;;8.83;4.42;;;;;;;4.55;88.39;100960.33;1815695;78;21025;-74
2022/11/14 04:41:41;;;;;;;9.88;5.90;;;;;;;4.51;88.14;100960.52;1820204;78;21037;-72
2022/11/14 04:44:26;;;;;;;7.78;5.25;;;;;;;4.63;87.86;100968.56;1803060;78;21010;-77
2022/11/14 04:47:12;;;;;;;7.22;5.37;;;;;;;4.58;87.82;100970.64;1815330;78;21022;-74
2022/11/14 04:49:57;;;;;;;10.98;5.97;;;;;;;4.48;87.90;100977.84;1815966;76;21037;-75
2022/11/14 04:52:43;;;;;;;10.28;6.00;;;;;;;4.36;88.11;100971.19;1812896;78;21021;-75
2022/11/14 04:55:29;;;;;;;8.45;4.72;;;;;;;4.33;88.34;100973.08;1825127;78;21522;-74
2022/11/14 04:58:14;;;;;;;7.50;4.80;;;;;;;4.41;88.01;100980.48;1821125;78;21526;-76
2022/11/14 05:00:59;;;;;;;7.87;5.40;;;;;;;4.34;88.25;100976.55;1750476;80;21018;-75
2022/11/14 05:03:44;;;;;;;8.88;5.37;;;;;;;4.26;88.44;100978.83;1790630;78;21562;-73
2022/11/14 05:06:30;;;;;;;9.68;5.20;;;;;;;4.13;88.58;100980.92;1826077;77;21030;-73
2022/11/14 05:09:15;;;;;;;8.70;5.83;;;;;;;4.09;88.57;100982.03;1822010;77;21210;-74
2022/11/14 05:12:00;;;;;;;9.00;6.55;;;;;;;4.15;88.35;100990.01;1819527;77;21037;-74
2022/11/14 05:14:45;;;;;;;11.28;7.30;;;;;;;4.04;88.68;100988.07;1821258;77;22035;-75
2022/11/14 05:17:32;;;;;;;9.83;7.22;;;;;;;3.94;89.17;100993.53;1822399;77;21026;-72
2022/11/14 05:20:17;;;;;;;11.00;7.22;;;;;;;3.86;89.55;100990.51;1818672;77;21064;-73
2022/11/14 05:23:02;;;;;;;10.95;8.45;;;;;;;3.85;89.48;100991.47;1828501;77;21231;-74
2022/11/14 05:25:49;;;;;;;12.43;9.03;;;;;;;3.91;89.34;100991.91;1827299;77;21196;-74
2022/11/14 05:28:35;;;;;;;9.68;7.92;;;;;;;3.83;89.49;100995.50;1815719;77;20998;-74
2022/11/14 05:31:20;;;;;;;12.90;6.80;;;;;;;3.73;89.89;100995.69;1815414;77;21069;-74
2022/11/14 05:34:05;;;;;;;14.65;8.85;;;;;;;3.63;89.93;100993.22;1828540;77;21097;-72
2022/11/14 05:36:50;;;;;;;11.83;7.37;;;;;;;3.68;89.99;100992.48;1822621;77;21123;-74
2022/11/14 05:39:35;;;;;;;8.28;5.58;;;;;;;3.66;90.21;101001.77;1817525;77;21047;-73
2022/11/14 05:42:20;;;;;;;8.15;6.70;;;;;;;3.60;90.67;101007.88;1822600;77;21513;-74
2022/11/14 05:45:07;;;;;;;8.03;5.62;;;;;;;3.55;90.98;101012.08;1829302;77;21457;-73
2022/11/14 05:47:55;;;;;;;9.93;4.92;;;;;;;3.50;91.06;101009.73;1818290;77;21043;-72
2022/11/14 05:50:42;;;;;;;8.08;5.75;;;;;;;3.58;91.01;101010.59;1817047;77;21245;-73
2022/11/14 05:53:28;;;;;;;14.87;6.12;;;;;;;3.65;90.82;101010.61;1826525;77;21047;-73
2022/11/14 05:56:13;;;;;;;9.70;5.97;;;;;;;3.60;91.11;101011.34;1817430;77;21030;-73
2022/11/14 05:58:58;;;;;;;10.85;5.58;;;;;;;3.56;91.27;101013.78;1826461;77;21018;-73
2022/11/14 06:01:43;;;;;;;10.20;4.90;;;;;;;3.62;91.24;101019.98;1821928;76;21009;-72
2022/11/14 06:04:29;;;;;;;8.23;5.17;;;;;;;3.78;90.96;101019.05;1825255;77;21105;-71
2022/11/14 06:07:14;;;;;;;10.60;5.92;;;;;;;3.72;90.94;101008.44;1831640;77;21520;-72
2022/11/14 06:09:59;;;;;;;8.95;5.95;;;;;;;3.70;91.06;101015.09;1824962;77;21585;-73
2022/11/14 06:12:43;;;;;;;12.33;6.15;;;;;;;3.65;91.28;101013.23;1783835;79;21030;-71
2022/11/14 06:15:28;;;;;;;11.28;5.83;;;;;;;3.77;91.72;101021.30;1777364;79;21109;-71
2022/11/14 06:18:13;;;;;;;12.03;5.50;;;;;;;4.00;91.66;101018.12;1785707;79;21195;-73
2022/11/14 06:21:00;;;;;;;8.65;5.00;;;;;;;4.10;91.27;101015.77;1774500;79;21058;-72
2022/11/14 06:23:45;;;;;;;8.50;4.65;;;;;;;4.13;91.40;101017.75;1776945;79;22292;-72
2022/11/14 06:26:32;;;;;;;8.05;4.70;;;;;;;4.22;91.59;101019.42;1753392;80;21117;-74
2022/11/14 06:29:16;;;;;;;6.90;4.50;;;;;;;4.37;91.22;101019.77;1782758;79;21030;-72
2022/11/14 06:32:02;;;;;;;11.05;6.08;;;;;;;4.62;91.03;101023.00;1734665;81;21240;-73
2022/11/14 06:34:48;;;;;;;11.55;6.35;;;;;;;4.75;90.91;101032.25;1760623;80;21011;-73
2022/11/14 06:37:36;;;;;;;10.78;5.78;;;;;;;4.82;90.42;101036.19;1814148;77;21042;-73
2022/11/14 06:40:21;;;;;;;9.73;5.97;;;;;;;4.84;89.91;101027.72;1833763;77;21580;-74
2022/11/14 06:43:06;;;;;;;7.50;5.42;;;;;;;4.93;89.53;101023.17;1821623;77;21604;-74
2022/11/14 06:45:54;;;;;;;8.53;5.87;;;;;;;5.16;89.39;101027.86;1822006;77;21871;-73
2022/11/14 06:48:39;;;;;;;12.33;5.72;;;;;;;5.25;89.25;101023.30;1822827;77;21022;-71
2022/11/14 06:51:24;;;;;;;8.75;5.90;;;;;;;5.34;88.74;101020.06;1834459;77;20966;-74
2022/11/14 06:54:11;;;;;;;7.90;5.35;;;;;;;5.39;88.32;101014.02;1818930;77;21055;-74
2022/11/14 06:56:56;;;;;;;11.90;5.97;;;;;;;5.50;87.96;101012.82;1814606;77;21013;-74
2022/11/14 06:59:41;;;;;;;8.15;6.15;;;;;;;5.69;87.50;101016.82;1823334;77;21072;-74
2022/11/14 07:02:26;;;;;;;7.90;5.28;;;;;;;5.78;87.21;101024.59;1846186;77;21415;-73
2022/11/14 07:05:12;;;;;;;9.43;5.70;;;;;;;5.84;87.21;101022.84;1835884;77;21013;-74
2022/11/14 07:07:57;;;;;;;8.38;5.35;;;;;;;5.92;86.89;101023.14;1821305;77;21076;-73
2022/11/14 07:10:42;;;;;;;9.83;5.30;;;;;;;5.96;86.19;101034.36;1788162;77;21051;-73
2022/11/14 07:13:27;;;;;;;10.05;5.12;;;;;;;6.03;85.71;101035.15;1801391;77;21224;-74
2022/11/14 07:16:12;;;;;;;9.38;5.25;;;;;;;6.18;85.09;101036.33;1821294;77;21022;-74
2022/11/14 07:18:59;;;;;;;11.28;6.65;;;;;;;6.17;84.68;101043.89;1816520;77;21057;-72
2022/11/14 07:21:44;;;;;;;13.08;6.53;;;;;;;6.15;84.71;101043.16;1828378;77;21486;-73
2022/11/14 07:24:29;;;;;;;10.38;6.65;;;;;;;6.17;84.77;101049.17;1802071;77;21201;-73
2022/11/14 07:27:14;;;;;;;11.65;6.55;;;;;;;6.22;84.57;101049.67;1802239;77;21276;-70
2022/11/14 07:29:59;;;;;;;11.45;7.17;;;;;;;6.32;84.22;101048.09;1773381;79;21089;-73
2022/11/14 07:36:05;;;;;;;11.55;7.33;;;;;;;6.45;83.97;101050.23;1681506;78;21010;-73
2022/11/14 07:38:50;;;;;;;11.22;8.25;;;;;;;6.50;83.90;101052.05;1782068;77;21066;-73
2022/11/14 07:41:35;;;;;;;13.88;8.95;;;;;;;6.57;84.00;101043.71;1807793;78;21412;-75
2022/11/14 07:44:20;;;;;;;12.80;8.98;;;;;;;6.75;83.84;101041.05;1818900;77;21734;-73
2022/11/14 07:47:05;;;;;;;11.93;8.85;;;;;;;6.99;83.15;101045.48;1757851;79;21563;-73
2022/11/14 07:49:50;;;;;;;10.32;7.70;;;;;;;7.09;82.87;101045.19;1805837;77;21037;-75
2022/11/14 07:52:35;;;;;;;10.43;6.85;;;;;;;7.15;82.13;101042.08;1799067;77;20989;-74
2022/11/14 07:55:20;;;;;;;10.50;7.20;;;;;;;7.22;82.23;101035.39;1804700;77;21209;-74
2022/11/14 07:58:05;;;;;;;10.93;5.97;;;;;;;7.34;82.01;101032.76;1818932;78;21050;-74
2022/11/14 08:00:51;;;;;;;9.68;5.70;;;;;;;7.44;81.69;101033.28;1824662;77;21046;-75
2022/11/14 08:03:36;;;;;;;9.18;5.08;;;;;;;7.58;80.71;101027.42;1812885;78;20997;-75
2022/11/14 08:06:22;;;;;;;9.28;5.92;;;;;;;7.73;80.11;101021.45;1758696;79;21553;-73
2022/11/14 08:09:07;;;;;;;10.40;6.45;;;;;;;7.76;79.53;101022.52;1776240;79;21131;-73
2022/11/14 08:11:52;;;;;;;10.43;6.65;;;;;;;7.81;79.59;101018.55;1768111;79;21117;-73
2022/11/14 08:14:40;;;;;;;9.73;6.00;;;;;;;7.85;79.43;101013.38;1757452;80;21551;-75
2022/11/14 08:17:25;;;;;;;12.00;7.10;;;;;;;7.93;79.17;101008.82;1785973;79;21489;-75
2022/11/14 08:20:10;;;;;;;8.95;6.20;;;;;;;8.05;78.96;101009.20;1795841;79;21051;-77
2022/11/14 08:23:05;;;;;;;10.78;6.85;;;;;;;8.27;78.63;101003.03;1786854;79;21606;-79
2022/11/14 08:25:52;;;;;;;11.40;7.17;;;;;;;8.59;78.38;101010.22;1795107;79;21025;-75
2022/11/14 08:28:37;;;;;;;13.13;7.97;;;;;;;8.83;77.54;101006.56;1796465;79;21527;-77
2022/11/14 08:31:22;;;;;;;15.35;7.55;;;;;;;9.05;76.81;101004.29;1800867;79;21010;-81
2022/11/14 08:34:08;;;;;;;13.13;8.63;;;;;;;9.17;76.13;101003.75;1795780;77;21671;-82
2022/11/14 08:36:55;;;;;;;12.88;7.87;;;;;;;9.33;75.86;101004.16;1772725;80;22162;-79
2022/11/14 08:39:40;;;;;;;12.03;7.65;;;;;;;9.52;75.33;101003.91;1824287;77;21013;-73
2022/11/14 08:42:25;;;;;;;10.75;7.53;;;;;;;9.68;74.93;100999.45;1829922;77;21473;-77
2022/11/14 08:45:10;;;;;;;9.10;6.60;;;;;;;9.87;74.37;100998.72;1831362;77;21021;-79
2022/11/14 08:47:56;;;;;;;13.83;7.65;;;;;;;10.07;73.60;100998.33;1828786;77;20989;-75
2022/11/14 08:50:43;;;;;;;19.32;9.18;;;;;;;10.37;73.08;101003.64;1834077;77;21045;-80
2022/11/14 08:53:28;;;;;;;30.23;9.40;;;;;;;10.75;71.89;100998.02;1828873;77;21035;-81
2022/11/14 08:56:13;;;;;;;11.93;7.12;;;;;;;11.18;69.48;101000.77;1828446;77;21006;-77
2022/11/14 08:58:58;;;;;;;10.48;6.00;;;;;;;11.44;69.02;100998.02;1842870;77;21073;-76
2022/11/14 09:01:43;;;;;;;8.78;6.85;;;;;;;11.93;66.68;100996.89;1826389;77;21066;-77
2022/11/14 09:04:28;;;;;;;10.98;6.42;;;;;;;12.34;65.90;100999.22;1830059;77;21143;-78
2022/11/14 09:07:14;;;;;;;11.25;6.22;;;;;;;12.98;65.18;100994.73;1830064;77;21021;-83
2022/11/14 09:10:00;;;;;;;8.80;6.45;;;;;;;13.84;63.01;100986.02;1828653;76;21052;-86
2022/11/14 09:12:45;;;;;;;9.85;6.05;;;;;;;14.39;60.04;100987.90;1817502;77;21053;-77
2022/11/14 09:15:32;;;;;;;10.03;6.25;;;;;;;14.72;59.02;100973.65;1830571;77;21105;-83
2022/11/14 09:18:17;;;;;;;7.15;5.53;;;;;;;15.25;58.30;100979.50;1836007;77;21226;-81
2022/11/14 09:21:05;;;;;;;8.13;5.10;;;;;;;15.80;56.38;100978.43;1817986;77;20970;-77
2022/11/14 09:23:51;;;;;;;9.33;4.78;;;;;;;16.43;54.78;100969.95;1829220;77;21665;-82
2022/11/14 09:26:37;;;;;;;7.72;4.08;;;;;;;17.07;53.33;100977.27;1802374;79;21105;-79
2022/11/14 09:29:22;;;;;;;5.60;4.90;;;;;;;17.67;51.32;100982.23;1786279;79;21062;-83
2022/11/14 09:32:08;;;;;;;6.28;4.20;;;;;;;18.24;51.03;100969.98;1789736;79;21137;-82
2022/11/14 09:34:54;;;;;;;6.08;4.12;;;;;;;18.93;49.20;100964.63;1800794;79;20971;-86
2022/11/14 09:37:39;;;;;;;7.67;4.47;;;;;;;19.42;47.71;100968.34;1780312;79;21046;-81
2022/11/14 09:40:25;;;;;;;9.85;5.65;;;;;;;19.89;46.75;100963.25;1791782;77;21014;-81
2022/11/14 09:43:24;;;;;;;6.90;3.80;;;;;;;20.61;45.72;100960.02;1805660;79;21065;-82
2022/11/14 09:46:22;;;;;;;4.72;3.95;;;;;;;21.23;44.08;100956.30;1789770;79;21293;-78
2022/11/14 09:49:12;;;;;;;5.55;3.33;;;;;;;21.63;43.39;100957.11;1791954;79;21049;-80
2022/11/14 09:52:14;;;;;;;3.08;2.42;;;;;;;21.98;42.03;100954.95;1779402;79;21038;-81
2022/11/14 09:55:11;;;;;;;4.72;2.95;;;;;;;22.03;41.14;100954.29;1751095;80;22157;-83
2022/11/14 09:57:56;;;;;;;4.97;3.17;;;;;;;22.23;40.90;100946.07;1792684;79;21062;-84
2022/11/14 10:01:00;;;;;;;3.83;2.72;;;;;;;22.74;40.70;100948.42;1763640;80;21503;-82
2022/11/14 10:03:59;;;;;;;7.27;3.73;;;;;;;23.27;39.44;100945.29;1763298;80;21046;-83
2022/11/14 10:07:14;;;;;;;5.47;3.33;;;;;;;23.84;38.80;100937.55;1795354;79;21549;-82
2022/11/14 10:10:33;;;;;;;4.53;2.90;;;;;;;24.31;37.67;100938.59;1750642;81;21488;-81
2022/11/14 10:13:47;;;;;;;6.08;4.28;;;;;;;24.45;37.21;100937.05;1764497;80;21049;-81
2022/11/14 10:16:59;;;;;;;7.65;4.00;;;;;;;24.33;37.84;100933.75;1831699;77;21159;-84
2022/11/14 10:20:00;;;;;;;6.92;4.05;;;;;;;24.46;37.26;100932.75;1828776;77;21045;-82
2022/11/14 10:23:10;;;;;;;5.42;4.37;;;;;;;24.74;36.76;100929.95;1784993;79;21096;-89
2022/11/14 10:26:16;;;;;;;6.08;3.50;;;;;;;25.01;36.19;100929.52;1761993;80;21040;-86
2022/11/14 10:29:42;;;;;;;5.47;2.90;;;;;;;25.37;34.79;100929.04;1766131;80;21104;-86
2022/11/14 10:32:45;;;;;;;5.10;3.02;;;;;;;25.50;35.22;100926.89;1818923;77;21134;-83
2022/11/14 10:35:44;;;;;;;4.47;3.02;;;;;;;25.58;34.89;100927.06;1842093;77;20998;-80
2022/11/14 10:38:45;;;;;;;5.97;3.30;;;;;;;25.12;34.97;100926.80;1826651;77;21512;-80
2022/11/14 10:41:30;;;;;;;5.50;3.05;;;;;;;24.28;35.65;100924.64;1822709;77;21057;-80
2022/11/14 10:44:19;;;;;;;4.87;3.90;;;;;;;23.52;36.46;100915.42;1832280;77;21018;-82
2022/11/14 10:47:08;;;;;;;6.92;3.62;;;;;;;23.31;36.79;100918.06;1823087;77;21892;-80
2022/11/14 10:49:54;;;;;;;4.47;3.33;;;;;;;23.70;36.64;100912.41;1818725;77;21147;-80
2022/11/14 10:52:41;;;;;;;5.92;3.77;;;;;;;23.61;36.29;100913.25;1837311;77;21028;-81
2022/11/14 10:55:26;;;;;;;4.22;3.10;;;;;;;23.26;36.61;100920.61;1815165;77;21053;-79
2022/11/14 10:58:12;;;;;;;4.80;2.67;;;;;;;23.01;36.84;100915.17;1837085;76;21021;-80
2022/11/14 11:01:29;;;;;;;5.25;2.95;;;;;;;22.55;37.18;100910.95;1835717;77;21495;-81
2022/11/14 11:04:28;;;;;;;3.72;2.90;;;;;;;22.08;37.64;100907.14;1785192;79;21073;-81
2022/11/14 11:13:38;;;;;;;5.87;3.30;;;;;;;20.55;38.83;100908.67;1825824;77;21077;-81
2022/11/14 11:16:24;;;;;;;8.05;3.55;;;;;;;20.00;39.67;100914.97;1839352;77;21179;-84
2022/11/14 11:19:24;;;;;;;5.10;3.30;;;;;;;19.80;40.09;100916.77;1840941;77;21000;-83
2022/11/14 11:22:31;;;;;;;5.62;3.30;;;;;;;19.64;40.49;100911.14;1815836;77;21300;-81
2022/11/14 11:25:28;;;;;;;5.33;3.65;;;;;;;19.61;40.66;100911.55;1841194;77;21033;-81
2022/11/14 11:28:19;;;;;;;4.80;3.30;;;;;;;20.01;40.55;100909.05;1823468;77;21020;-84
2022/11/14 11:31:07;;;;;;;6.17;3.17;;;;;;;20.71;40.15;100907.50;1826616;77;21127;-81
2022/11/14 11:33:52;;;;;;;6.15;3.15;;;;;;;21.47;39.12;100899.45;1834314;77;21069;-79
2022/11/14 11:36:41;;;;;;;5.08;3.10;;;;;;;22.13;37.88;100899.17;1790931;77;21034;-79
2022/11/14 11:39:36;;;;;;;4.85;3.15;;;;;;;22.88;37.25;100894.44;1815770;77;21076;-82
2022/11/14 11:42:50;;;;;;;6.78;3.40;;;;;;;23.67;36.29;100889.82;1818537;77;21130;-81
2022/11/14 11:45:37;;;;;;;8.95;3.05;;;;;;;24.48;35.26;100887.71;1823646;77;20979;-86
2022/11/14 11:48:23;;;;;;;6.35;3.83;;;;;;;25.14;34.47;100887.16;1763736;80;20999;-83
2022/11/14 11:51:14;;;;;;;6.70;3.50;;;;;;;25.54;33.69;100887.80;1791501;78;21026;-83
2022/11/14 11:54:15;;;;;;;5.10;3.50;;;;;;;25.76;33.51;100887.15;1766411;79;20999;-82
2022/11/14 11:57:02;;;;;;;5.35;3.02;;;;;;;26.16;33.15;100879.52;1841907;77;20998;-76
2022/11/14 11:59:54;;;;;;;9.75;3.85;;;;;;;26.26;32.83;100885.14;1839176;77;21219;-76
2022/11/14 12:02:44;;;;;;;8.20;3.62;;;;;;;26.07;32.90;100881.25;1833741;77;21025;-78
2022/11/14 12:05:55;;;;;;;8.68;3.70;;;;;;;25.73;32.97;100890.34;1821836;77;21056;-76
2022/11/14 12:09:13;;;;;;;5.87;3.55;;;;;;;25.08;33.42;100895.72;1838206;77;22320;-75
2022/11/14 12:12:02;;;;;;;7.10;4.05;;;;;;;24.50;34.07;100890.48;1817846;77;21037;-75
2022/11/14 12:15:29;;;;;;;5.25;3.40;;;;;;;24.01;34.54;100891.60;1822288;77;21592;-78
2022/11/14 12:18:35;;;;;;;6.92;4.42;;;;;;;23.47;35.28;100891.38;1829427;77;20994;-77
2022/11/14 12:22:00;;;;;;;7.28;5.97;;;;;;;23.34;35.70;100887.77;1823124;77;21018;-76
2022/11/14 12:25:18;;;;;;;8.33;4.67;;;;;;;22.75;36.01;100877.78;1765268;79;21043;-75
2022/11/14 12:28:29;;;;;;;8.15;4.30;;;;;;;21.54;37.04;100885.41;1773031;79;21017;-76
2022/11/14 12:31:15;;;;;;;6.62;4.47;;;;;;;19.96;38.93;100881.88;1781739;80;21317;-74
2022/11/14 12:34:21;;;;;;;7.03;4.05;;;;;;;18.59;40.88;100892.11;1769265;80;21116;-76
2022/11/14 12:37:09;;;;;;;6.12;4.05;;;;;;;17.53;42.29;100890.34;1772004;80;21223;-75
2022/11/14 12:40:05;;;;;;;7.50;4.53;;;;;;;16.44;43.88;100887.16;1772262;79;21529;-76
2022/11/14 12:42:50;;;;;;;7.85;4.25;;;;;;;15.64;45.30;100881.00;1755153;80;21087;-76
2022/11/14 12:45:44;;;;;;;8.13;4.62;;;;;;;14.89;46.74;100882.69;1775068;80;21112;-77
2022/11/14 12:51:46;;;;;;;6.90;4.22;;;;;;;13.73;49.19;100884.33;1772384;78;21060;-83
2022/11/14 12:54:45;;;;;;;7.05;4.28;;;;;;;13.12;50.35;100883.45;1772696;80;21036;-81
2022/11/14 12:57:48;;;;;;;9.40;4.55;;;;;;;12.59;51.83;100878.57;1777402;79;21060;-81
2022/11/14 13:00:47;;;;;;;5.65;3.75;;;;;;;12.22;52.71;100888.03;1780726;80;21088;-83
2022/11/14 13:04:07;;;;;;;7.25;4.00;;;;;;;11.88;53.61;100883.31;1737180;80;21036;-84
2022/11/14 13:07:34;;;;;;;6.47;3.98;;;;;;;11.54;54.39;100878.56;1756229;81;21041;-85
2022/11/14 13:10:38;;;;;;;6.58;3.87;;;;;;;11.20;55.41;100875.13;1718696;81;20992;-85
2022/11/14 13:22:42;;;;;;;5.87;3.42;;;;;;;9.84;58.76;100880.41;1773727;80;21028;-83
2022/11/14 13:25:28;;;;;;;6.62;4.00;;;;;;;9.63;59.44;100877.81;1773146;80;21048;-88
2022/11/14 13:28:44;;;;;;;5.20;3.40;;;;;;;9.64;60.30;100877.69;1750227;80;21084;-82
2022/11/14 13:31:44;;;;;;;5.60;3.25;;;;;;;9.74;60.34;100880.87;1773357;80;21825;-83
2022/11/14 13:34:55;;;;;;;5.80;3.67;;;;;;;9.68;60.29;100880.92;1776523;80;21047;-82
2022/11/14 13:38:18;;;;;;;6.35;3.65;;;;;;;9.53;60.34;100875.62;1769538;80;20942;-84